sensor_id;sensor_type;location;lat;lon;timestamp;pressure;altitude;pressure_sealevel;temperature;humidity
36380;BME280;22411;53.016;18.632;2023-11-21T00:01:06;99998.94;;;0.13;100.00
36380;BME280;22411;53.016;18.632;2023-11-21T00:03:39;99998.88;;;0.15;100.00
36380;BME280;22411;53.016;18.632;2023-11-21T00:06:06;100008.28;;;0.13;100.00
36380;BME280;22411;53.016;18.632;2023-11-21T00:08:35;100002.38;;;0.12;100.00
36380;BME280;22411;53.016;18.632;2023-11-21T00:11:03;100002.47;;;0.09;100.00
36380;BME280;22411;53.016;18.632;2023-11-21T00:13:32;100007.56;;;0.09;100.00
36380;BME280;22411;53.016;18.632;2023-11-21T00:15:58;100005.00;;;0.09;100.00
36380;BME280;22411;53.016;18.632;2023-11-21T00:18:24;100010.91;;;0.11;100.00
36380;BME280;22411;53.016;18.632;2023-11-21T00:20:53;100010.91;;;0.11;100.00
36380;BME280;22411;53.016;18.632;2023-11-21T00:23:18;100014.28;;;0.12;100.00
36380;BME280;22411;53.016;18.632;2023-11-21T00:25:44;100013.38;;;0.13;100.00
36380;BME280;22411;53.016;18.632;2023-11-21T00:28:10;100008.38;;;0.10;100.00
36380;BME280;22411;53.016;18.632;2023-11-21T00:30:36;100020.22;;;0.12;100.00
36380;BME280;22411;53.016;18.632;2023-11-21T00:33:02;100021.09;;;0.11;100.00
36380;BME280;22411;53.016;18.632;2023-11-21T00:35:27;100019.38;;;0.12;100.00
36380;BME280;22411;53.016;18.632;2023-11-21T00:37:53;100026.28;;;0.08;100.00
36380;BME280;22411;53.016;18.632;2023-11-21T00:40:19;100023.53;;;0.14;100.00
36380;BME280;22411;53.016;18.632;2023-11-21T00:42:47;100027.66;;;0.18;100.00
36380;BME280;22411;53.016;18.632;2023-11-21T00:45:12;100021.94;;;0.12;100.00
36380;BME280;22411;53.016;18.632;2023-11-21T00:47:39;100037.25;;;0.10;100.00
36380;BME280;22411;53.016;18.632;2023-11-21T00:50:05;100040.53;;;0.14;100.00
36380;BME280;22411;53.016;18.632;2023-11-21T00:52:35;100048.13;;;0.15;100.00
36380;BME280;22411;53.016;18.632;2023-11-21T00:55:02;100048.19;;;0.14;100.00
36380;BME280;22411;53.016;18.632;2023-11-21T00:57:28;100047.50;;;0.09;100.00
36380;BME280;22411;53.016;18.632;2023-11-21T00:59:54;100051.00;;;0.06;100.00
36380;BME280;22411;53.016;18.632;2023-11-21T01:02:20;100054.25;;;0.10;100.00
36380;BME280;22411;53.016;18.632;2023-11-21T01:04:46;100057.63;;;0.10;100.00
36380;BME280;22411;53.016;18.632;2023-11-21T01:26:26;100072.00;;;0.13;100.00
36380;BME280;22411;53.016;18.632;2023-11-21T01:28:52;100073.81;;;0.09;100.00
36380;BME280;22411;53.016;18.632;2023-11-21T01:31:17;100070.56;;;0.04;100.00
36380;BME280;22411;53.016;18.632;2023-11-21T01:33:43;100079.88;;;0.05;100.00
36380;BME280;22411;53.016;18.632;2023-11-21T01:36:09;100082.34;;;0.08;100.00
36380;BME280;22411;53.016;18.632;2023-11-21T01:38:36;100082.50;;;0.04;100.00
36380;BME280;22411;53.016;18.632;2023-11-21T01:41:01;100081.72;;;0.02;100.00
36380;BME280;22411;53.016;18.632;2023-11-21T01:43:27;100071.59;;;-0.02;100.00
36380;BME280;22411;53.016;18.632;2023-11-21T01:45:56;100071.59;;;0.00;100.00
36380;BME280;22411;53.016;18.632;2023-11-21T01:48:23;100073.28;;;-0.01;100.00
36380;BME280;22411;53.016;18.632;2023-11-21T01:50:49;100071.47;;;0.03;100.00
36380;BME280;22411;53.016;18.632;2023-11-21T01:53:15;100077.41;;;0.04;100.00
36380;BME280;22411;53.016;18.632;2023-11-21T01:55:41;100081.81;;;-0.02;100.00
36380;BME280;22411;53.016;18.632;2023-11-21T01:58:10;100072.50;;;-0.03;100.00
36380;BME280;22411;53.016;18.632;2023-11-21T02:00:36;100073.28;;;-0.01;100.00
36380;BME280;22411;53.016;18.632;2023-11-21T02:03:04;100077.50;;;0.01;100.00
36380;BME280;22411;53.016;18.632;2023-11-21T02:05:30;100078.44;;;-0.02;100.00
36380;BME280;22411;53.016;18.632;2023-11-21T02:07:56;100083.44;;;0.01;100.00
36380;BME280;22411;53.016;18.632;2023-11-21T02:10:22;100088.53;;;0.01;100.00
36380;BME280;22411;53.016;18.632;2023-11-21T02:12:49;100088.53;;;0.01;100.00
36380;BME280;22411;53.016;18.632;2023-11-21T02:15:16;100084.31;;;0.00;100.00
36380;BME280;22411;53.016;18.632;2023-11-21T02:17:47;100086.66;;;0.06;100.00
36380;BME280;22411;53.016;18.632;2023-11-21T02:20:13;100089.22;;;0.06;100.00
36380;BME280;22411;53.016;18.632;2023-11-21T02:22:49;100093.50;;;0.04;100.00
36380;BME280;22411;53.016;18.632;2023-11-21T02:25:15;100091.78;;;0.06;100.00
36380;BME280;22411;53.016;18.632;2023-11-21T02:27:41;100091.56;;;0.12;100.00
36380;BME280;22411;53.016;18.632;2023-11-21T02:30:09;100086.66;;;0.06;100.00
36380;BME280;22411;53.016;18.632;2023-11-21T02:32:38;100096.03;;;0.06;100.00
36380;BME280;22411;53.016;18.632;2023-11-21T02:35:05;100097.00;;;0.02;100.00
36380;BME280;22411;53.016;18.632;2023-11-21T02:37:33;100093.66;;;-0.01;100.00
36380;BME280;22411;53.016;18.632;2023-11-21T02:39:59;100104.03;;;-0.07;100.00
36380;BME280;22411;53.016;18.632;2023-11-21T02:42:25;100110.84;;;-0.07;100.00
36380;BME280;22411;53.016;18.632;2023-11-21T02:44:51;100113.47;;;-0.09;100.00
36380;BME280;22411;53.016;18.632;2023-11-21T02:47:17;100119.31;;;-0.07;100.00
36380;BME280;22411;53.016;18.632;2023-11-21T02:49:42;100113.34;;;-0.06;100.00
36380;BME280;22411;53.016;18.632;2023-11-21T02:52:08;100132.88;;;-0.05;100.00
36380;BME280;22411;53.016;18.632;2023-11-21T02:54:34;100129.25;;;0.03;100.00
36380;BME280;22411;53.016;18.632;2023-11-21T02:57:02;100140.19;;;0.06;100.00
36380;BME280;22411;53.016;18.632;2023-11-21T02:59:28;100131.66;;;0.07;100.00
36380;BME280;22411;53.016;18.632;2023-11-21T03:01:54;100138.81;;;-0.06;100.00
36380;BME280;22411;53.016;18.632;2023-11-21T03:04:19;100140.66;;;-0.09;100.00
36380;BME280;22411;53.016;18.632;2023-11-21T03:06:47;100142.41;;;-0.11;100.00
36380;BME280;22411;53.016;18.632;2023-11-21T03:09:12;100143.22;;;-0.11;100.00
36380;BME280;22411;53.016;18.632;2023-11-21T03:11:38;100150.94;;;-0.12;100.00
36380;BME280;22411;53.016;18.632;2023-11-21T03:14:04;100146.78;;;-0.16;100.00
36380;BME280;22411;53.016;18.632;2023-11-21T03:16:32;100142.50;;;-0.14;100.00
36380;BME280;22411;53.016;18.632;2023-11-21T03:18:57;100141.00;;;-0.21;100.00
36380;BME280;22411;53.016;18.632;2023-11-21T03:21:24;100135.22;;;-0.27;100.00
36380;BME280;22411;53.016;18.632;2023-11-21T03:23:51;100134.34;;;-0.25;100.00
36380;BME280;22411;53.016;18.632;2023-11-21T03:26:20;100130.88;;;-0.23;100.00
36380;BME280;22411;53.016;18.632;2023-11-21T03:28:45;100132.59;;;-0.23;100.00
36380;BME280;22411;53.016;18.632;2023-11-21T03:31:12;100133.53;;;-0.28;100.00
36380;BME280;22411;53.016;18.632;2023-11-21T03:33:37;100150.69;;;-0.33;100.00
36380;BME280;22411;53.016;18.632;2023-11-21T03:36:07;100149.78;;;-0.30;100.00
36380;BME280;22411;53.016;18.632;2023-11-21T03:38:33;100155.63;;;-0.28;100.00
36380;BME280;22411;53.016;18.632;2023-11-21T03:40:59;100157.22;;;-0.24;100.00
36380;BME280;22411;53.016;18.632;2023-11-21T03:43:25;100150.41;;;-0.23;100.00
36380;BME280;22411;53.016;18.632;2023-11-21T03:45:51;100155.47;;;-0.22;100.00
36380;BME280;22411;53.016;18.632;2023-11-21T03:48:17;100159.00;;;-0.26;100.00
36380;BME280;22411;53.016;18.632;2023-11-21T03:50:43;100148.81;;;-0.26;100.00
36380;BME280;22411;53.016;18.632;2023-11-21T03:53:09;100153.94;;;-0.28;100.00
36380;BME280;22411;53.016;18.632;2023-11-21T03:55:34;100153.22;;;-0.33;100.00
36380;BME280;22411;53.016;18.632;2023-11-21T03:58:00;100160.91;;;-0.34;100.00
36380;BME280;22411;53.016;18.632;2023-11-21T04:00:27;100162.63;;;-0.35;100.00
36380;BME280;22411;53.016;18.632;2023-11-21T04:02:53;100162.00;;;-0.43;100.00
36380;BME280;22411;53.016;18.632;2023-11-21T04:05:20;100156.91;;;-0.43;100.00
36380;BME280;22411;53.016;18.632;2023-11-21T04:07:49;100158.72;;;-0.46;100.00
36380;BME280;22411;53.016;18.632;2023-11-21T04:10:18;100157.06;;;-0.47;100.00
36380;BME280;22411;53.016;18.632;2023-11-21T04:12:44;100153.59;;;-0.45;100.00
36380;BME280;22411;53.016;18.632;2023-11-21T04:15:11;100154.41;;;-0.44;100.00
36380;BME280;22411;53.016;18.632;2023-11-21T04:17:38;100160.28;;;-0.42;100.00
36380;BME280;22411;53.016;18.632;2023-11-21T04:20:05;100156.91;;;-0.43;100.00
36380;BME280;22411;53.016;18.632;2023-11-21T04:22:41;100167.06;;;-0.41;100.00
36380;BME280;22411;53.016;18.632;2023-11-21T04:25:10;100173.72;;;-0.36;100.00
36380;BME280;22411;53.016;18.632;2023-11-21T04:27:38;100183.13;;;-0.39;100.00
36380;BME280;22411;53.016;18.632;2023-11-21T04:30:05;100188.28;;;-0.41;100.00
36380;BME280;22411;53.016;18.632;2023-11-21T04:32:31;100186.75;;;-0.46;100.00
36380;BME280;22411;53.016;18.632;2023-11-21T04:34:57;100187.81;;;-0.55;100.00
36380;BME280;22411;53.016;18.632;2023-11-21T04:37:23;100191.31;;;-0.59;100.00
36380;BME280;22411;53.016;18.632;2023-11-21T04:39:50;100198.06;;;-0.57;100.00
36380;BME280;22411;53.016;18.632;2023-11-21T04:42:15;100206.53;;;-0.56;100.00
36380;BME280;22411;53.016;18.632;2023-11-21T04:44:41;100211.63;;;-0.56;100.00
36380;BME280;22411;53.016;18.632;2023-11-21T04:47:07;100212.44;;;-0.56;100.00
36380;BME280;22411;53.016;18.632;2023-11-21T04:49:33;100216.75;;;-0.58;100.00
36380;BME280;22411;53.016;18.632;2023-11-21T04:51:59;100215.03;;;-0.57;100.00
36380;BME280;22411;53.016;18.632;2023-11-21T04:54:25;100222.69;;;-0.59;100.00
36380;BME280;22411;53.016;18.632;2023-11-21T04:56:51;100227.72;;;-0.56;100.00
36380;BME280;22411;53.016;18.632;2023-11-21T04:59:17;100233.03;;;-0.63;100.00
36380;BME280;22411;53.016;18.632;2023-11-21T05:01:42;100227.06;;;-0.62;100.00
36380;BME280;22411;53.016;18.632;2023-11-21T05:04:08;100238.13;;;-0.63;100.00
36380;BME280;22411;53.016;18.632;2023-11-21T05:06:34;100242.34;;;-0.64;100.00
36380;BME280;22411;53.016;18.632;2023-11-21T05:09:00;100249.16;;;-0.64;100.00
36380;BME280;22411;53.016;18.632;2023-11-21T05:11:26;100250.09;;;-0.67;100.00
36380;BME280;22411;53.016;18.632;2023-11-21T05:13:53;100256.19;;;-0.72;100.00
36380;BME280;22411;53.016;18.632;2023-11-21T05:16:21;100260.47;;;-0.74;100.00
36380;BME280;22411;53.016;18.632;2023-11-21T05:18:48;100261.44;;;-0.78;100.00
36380;BME280;22411;53.016;18.632;2023-11-21T05:21:16;100264.72;;;-0.75;100.00
36380;BME280;22411;53.016;18.632;2023-11-21T05:23:42;100267.38;;;-0.80;100.00
36380;BME280;22411;53.016;18.632;2023-11-21T05:26:07;100265.63;;;-0.77;100.00
36380;BME280;22411;53.016;18.632;2023-11-21T05:28:33;100270.78;;;-0.79;100.00
36380;BME280;22411;53.016;18.632;2023-11-21T05:30:59;100269.06;;;-0.78;100.00
36380;BME280;22411;53.016;18.632;2023-11-21T05:33:25;100270.78;;;-0.81;100.00
36380;BME280;22411;53.016;18.632;2023-11-21T05:35:50;100275.00;;;-0.80;100.00
36380;BME280;22411;53.016;18.632;2023-11-21T05:38:16;100284.25;;;-0.75;100.00
36380;BME280;22411;53.016;18.632;2023-11-21T05:40:42;100275.72;;;-0.73;100.00
36380;BME280;22411;53.016;18.632;2023-11-21T05:43:09;100278.16;;;-0.70;100.00
36380;BME280;22411;53.016;18.632;2023-11-21T05:45:35;100278.28;;;-0.74;100.00
36380;BME280;22411;53.016;18.632;2023-11-21T05:48:01;100279.16;;;-0.75;100.00
36380;BME280;22411;53.016;18.632;2023-11-21T05:50:26;100287.72;;;-0.78;100.00
36380;BME280;22411;53.016;18.632;2023-11-21T05:52:52;100290.22;;;-0.76;100.00
36380;BME280;22411;53.016;18.632;2023-11-21T05:55:18;100295.25;;;-0.73;100.00
36380;BME280;22411;53.016;18.632;2023-11-21T05:57:46;100289.28;;;-0.74;100.00
36380;BME280;22411;53.016;18.632;2023-11-21T06:00:13;100289.28;;;-0.74;100.00
36380;BME280;22411;53.016;18.632;2023-11-21T06:02:49;100295.38;;;-0.80;100.00
36380;BME280;22411;53.016;18.632;2023-11-21T06:05:17;100299.78;;;-0.86;100.00
36380;BME280;22411;53.016;18.632;2023-11-21T06:07:44;100300.63;;;-0.86;100.00
36380;BME280;22411;53.016;18.632;2023-11-21T06:10:11;100309.97;;;-0.86;100.00
36380;BME280;22411;53.016;18.632;2023-11-21T06:12:38;100314.16;;;-0.85;100.00
36380;BME280;22411;53.016;18.632;2023-11-21T06:15:05;100326.09;;;-0.87;100.00
36380;BME280;22411;53.016;18.632;2023-11-21T06:17:34;100331.09;;;-0.83;100.00
36380;BME280;22411;53.016;18.632;2023-11-21T06:20:03;100339.63;;;-0.85;100.00
36380;BME280;22411;53.016;18.632;2023-11-21T06:22:41;100333.69;;;-0.84;100.00
36380;BME280;22411;53.016;18.632;2023-11-21T06:25:08;100339.59;;;-0.84;100.00
36380;BME280;22411;53.016;18.632;2023-11-21T06:27:38;100342.25;;;-0.88;100.00
36380;BME280;22411;53.016;18.632;2023-11-21T06:30:06;100345.78;;;-0.94;100.00
36380;BME280;22411;53.016;18.632;2023-11-21T06:32:32;100347.44;;;-0.93;100.00
36380;BME280;22411;53.016;18.632;2023-11-21T06:34:58;100356.75;;;-0.92;100.00
36380;BME280;22411;53.016;18.632;2023-11-21T06:37:27;100352.69;;;-1.00;100.00
36380;BME280;22411;53.016;18.632;2023-11-21T06:39:53;100355.19;;;-0.97;100.00
36380;BME280;22411;53.016;18.632;2023-11-21T06:42:20;100362.81;;;-0.97;100.00
36380;BME280;22411;53.016;18.632;2023-11-21T06:44:46;100369.66;;;-0.99;100.00
36380;BME280;22411;53.016;18.632;2023-11-21T06:47:12;100371.34;;;-0.98;100.00
36380;BME280;22411;53.016;18.632;2023-11-21T06:49:38;100378.09;;;-0.97;100.00
36380;BME280;22411;53.016;18.632;2023-11-21T06:52:04;100383.13;;;-0.94;100.00
36380;BME280;22411;53.016;18.632;2023-11-21T06:54:33;100378.88;;;-0.94;100.00
36380;BME280;22411;53.016;18.632;2023-11-21T06:56:59;100390.72;;;-0.93;100.00
36380;BME280;22411;53.016;18.632;2023-11-21T06:59:25;100394.13;;;-0.94;100.00
36380;BME280;22411;53.016;18.632;2023-11-21T07:01:51;100394.09;;;-0.92;100.00
36380;BME280;22411;53.016;18.632;2023-11-21T07:04:17;100399.19;;;-0.92;100.00
36380;BME280;22411;53.016;18.632;2023-11-21T07:06:44;100401.63;;;-0.88;100.00
36380;BME280;22411;53.016;18.632;2023-11-21T07:09:09;100405.78;;;-0.84;100.00
36380;BME280;22411;53.016;18.632;2023-11-21T07:11:37;100406.47;;;-0.77;100.00
36380;BME280;22411;53.016;18.632;2023-11-21T07:14:06;100415.75;;;-0.76;100.00
36380;BME280;22411;53.016;18.632;2023-11-21T07:16:34;100414.88;;;-0.75;100.00
36380;BME280;22411;53.016;18.632;2023-11-21T07:19:05;100417.41;;;-0.73;100.00
36380;BME280;22411;53.016;18.632;2023-11-21T07:21:35;100415.75;;;-0.76;100.00
36380;BME280;22411;53.016;18.632;2023-11-21T07:24:02;100418.19;;;-0.71;100.00
36380;BME280;22411;53.016;18.632;2023-11-21T07:26:28;100417.28;;;-0.69;100.00
36380;BME280;22411;53.016;18.632;2023-11-21T07:28:54;100418.88;;;-0.65;100.00
36380;BME280;22411;53.016;18.632;2023-11-21T07:31:22;100434.22;;;-0.66;100.00
36380;BME280;22411;53.016;18.632;2023-11-21T07:33:49;100442.63;;;-0.63;100.00
36380;BME280;22411;53.016;18.632;2023-11-21T07:36:16;100435.97;;;-0.68;100.00
36380;BME280;22411;53.016;18.632;2023-11-21T07:38:44;100437.00;;;-0.77;100.00
36380;BME280;22411;53.016;18.632;2023-11-21T07:41:10;100452.38;;;-0.82;100.00
36380;BME280;22411;53.016;18.632;2023-11-21T07:43:37;100459.16;;;-0.82;100.00
36380;BME280;22411;53.016;18.632;2023-11-21T07:46:03;100448.19;;;-0.84;100.00
36380;BME280;22411;53.016;18.632;2023-11-21T07:48:29;100454.97;;;-0.85;100.00
36380;BME280;22411;53.016;18.632;2023-11-21T07:50:55;100454.22;;;-0.90;100.00
36380;BME280;22411;53.016;18.632;2023-11-21T07:53:21;100456.03;;;-0.93;100.00
36380;BME280;22411;53.016;18.632;2023-11-21T07:55:47;100461.06;;;-0.92;100.00
36380;BME280;22411;53.016;18.632;2023-11-21T07:58:13;100462.78;;;-0.92;100.00
36380;BME280;22411;53.016;18.632;2023-11-21T08:00:39;100460.97;;;-0.87;100.00
36380;BME280;22411;53.016;18.632;2023-11-21T08:03:05;100463.47;;;-0.86;100.00
36380;BME280;22411;53.016;18.632;2023-11-21T08:05:31;100460.78;;;-0.78;100.00
36380;BME280;22411;53.016;18.632;2023-11-21T08:07:57;100464.16;;;-0.77;100.00
36380;BME280;22411;53.016;18.632;2023-11-21T08:10:23;100472.59;;;-0.75;100.00
36380;BME280;22411;53.016;18.632;2023-11-21T08:12:49;100479.44;;;-0.77;100.00
36380;BME280;22411;53.016;18.632;2023-11-21T08:15:16;100481.28;;;-0.84;100.00
36380;BME280;22411;53.016;18.632;2023-11-21T08:17:41;100470.25;;;-0.85;100.00
36380;BME280;22411;53.016;18.632;2023-11-21T08:20:08;100475.13;;;-0.75;100.00
36380;BME280;22411;53.016;18.632;2023-11-21T08:22:36;100482.56;;;-0.66;100.00
36380;BME280;22411;53.016;18.632;2023-11-21T08:25:02;100484.97;;;-0.60;100.00
36380;BME280;22411;53.016;18.632;2023-11-21T08:27:30;100484.03;;;-0.56;100.00
36380;BME280;22411;53.016;18.632;2023-11-21T08:29:57;100488.19;;;-0.52;100.00
36380;BME280;22411;53.016;18.632;2023-11-21T08:32:23;100493.28;;;-0.52;100.00
36380;BME280;22411;53.016;18.632;2023-11-21T08:34:49;100484.81;;;-0.52;100.00
36380;BME280;22411;53.016;18.632;2023-11-21T08:37:16;100483.94;;;-0.51;100.00
36380;BME280;22411;53.016;18.632;2023-11-21T08:39:45;100477.13;;;-0.51;100.00
36380;BME280;22411;53.016;18.632;2023-11-21T08:42:11;100483.78;;;-0.45;100.00
36380;BME280;22411;53.016;18.632;2023-11-21T08:44:37;100486.22;;;-0.41;100.00
36380;BME280;22411;53.016;18.632;2023-11-21T08:47:04;100479.16;;;-0.30;100.00
36380;BME280;22411;53.016;18.632;2023-11-21T08:49:30;100481.66;;;-0.28;100.00
36380;BME280;22411;53.016;18.632;2023-11-21T08:51:56;100482.50;;;-0.26;100.00
36380;BME280;22411;53.016;18.632;2023-11-21T08:54:23;100493.50;;;-0.25;100.00
36380;BME280;22411;53.016;18.632;2023-11-21T08:56:49;100496.97;;;-0.28;100.00
36380;BME280;22411;53.016;18.632;2023-11-21T08:59:15;100501.22;;;-0.29;100.00
36380;BME280;22411;53.016;18.632;2023-11-21T09:01:41;100496.28;;;-0.35;100.00
36380;BME280;22411;53.016;18.632;2023-11-21T09:04:07;100504.00;;;-0.39;100.00
36380;BME280;22411;53.016;18.632;2023-11-21T09:06:33;100513.31;;;-0.37;100.00
36380;BME280;22411;53.016;18.632;2023-11-21T09:08:59;100512.38;;;-0.34;100.00
36380;BME280;22411;53.016;18.632;2023-11-21T09:11:24;100502.50;;;-0.46;100.00
36380;BME280;22411;53.016;18.632;2023-11-21T09:13:51;100509.94;;;-0.39;100.00
36380;BME280;22411;53.016;18.632;2023-11-21T09:16:17;100514.94;;;-0.34;100.00
36380;BME280;22411;53.016;18.632;2023-11-21T09:18:43;100509.72;;;-0.30;100.00
36380;BME280;22411;53.016;18.632;2023-11-21T09:21:08;100507.19;;;-0.30;100.00
36380;BME280;22411;53.016;18.632;2023-11-21T09:23:35;100511.44;;;-0.30;100.00
36380;BME280;22411;53.016;18.632;2023-11-21T09:26:01;100523.38;;;-0.32;100.00
36380;BME280;22411;53.016;18.632;2023-11-21T09:28:27;100528.44;;;-0.31;100.00
36380;BME280;22411;53.016;18.632;2023-11-21T09:30:53;100523.13;;;-0.21;100.00
36380;BME280;22411;53.016;18.632;2023-11-21T09:33:19;100520.25;;;-0.08;100.00
36380;BME280;22411;53.016;18.632;2023-11-21T09:35:46;100522.69;;;-0.03;100.00
36380;BME280;22411;53.016;18.632;2023-11-21T09:38:13;100528.41;;;0.07;100.00
36380;BME280;22411;53.016;18.632;2023-11-21T09:40:38;100525.75;;;0.10;100.00
36380;BME280;22411;53.016;18.632;2023-11-21T09:43:11;100535.09;;;0.11;100.00
36380;BME280;22411;53.016;18.632;2023-11-21T09:45:45;100540.88;;;0.16;100.00
36380;BME280;22411;53.016;18.632;2023-11-21T09:48:11;100536.72;;;0.13;100.00
36380;BME280;22411;53.016;18.632;2023-11-21T09:50:37;100539.38;;;0.09;100.00
36380;BME280;22411;53.016;18.632;2023-11-21T09:55:37;100529.13;;;0.10;100.00
36380;BME280;22411;53.016;18.632;2023-11-21T09:58:04;100527.41;;;0.12;100.00
36380;BME280;22411;53.016;18.632;2023-11-21T10:00:33;100538.38;;;0.14;100.00
36380;BME280;22411;53.016;18.632;2023-11-21T10:02:59;100547.69;;;0.17;100.00
36380;BME280;22411;53.016;18.632;2023-11-21T10:05:25;100543.22;;;0.25;100.00
36380;BME280;22411;53.016;18.632;2023-11-21T10:07:52;100548.13;;;0.33;100.00
36380;BME280;22411;53.016;18.632;2023-11-21T10:10:19;100546.31;;;0.36;100.00
36380;BME280;22411;53.016;18.632;2023-11-21T10:12:50;100540.16;;;0.45;100.00
36380;BME280;22411;53.016;18.632;2023-11-21T10:15:22;100541.59;;;0.55;100.00
36380;BME280;22411;53.016;18.632;2023-11-21T10:17:49;100543.75;;;0.70;100.00
36380;BME280;22411;53.016;18.632;2023-11-21T10:20:15;100544.63;;;0.68;100.00
36380;BME280;22411;53.016;18.632;2023-11-21T10:22:42;100550.09;;;0.56;100.00
36380;BME280;22411;53.016;18.632;2023-11-21T10:25:12;100545.03;;;0.54;100.00
36380;BME280;22411;53.016;18.632;2023-11-21T10:27:40;100553.34;;;0.28;100.00
36380;BME280;22411;53.016;18.632;2023-11-21T10:30:10;100553.34;;;0.28;100.00
36380;BME280;22411;53.016;18.632;2023-11-21T10:32:38;100570.38;;;0.28;100.00
36380;BME280;22411;53.016;18.632;2023-11-21T10:35:07;100561.03;;;0.27;100.00
36380;BME280;22411;53.016;18.632;2023-11-21T10:37:41;100559.97;;;0.35;100.00
36380;BME280;22411;53.016;18.632;2023-11-21T10:40:09;100562.66;;;0.29;100.00
36380;BME280;22411;53.016;18.632;2023-11-21T10:42:40;100562.63;;;0.31;100.00
36380;BME280;22411;53.016;18.632;2023-11-21T10:45:08;100562.34;;;0.43;100.00
36380;BME280;22411;53.016;18.632;2023-11-21T10:47:44;100567.38;;;0.44;100.00
36380;BME280;22411;53.016;18.632;2023-11-21T10:50:09;100569.16;;;0.42;100.00
36380;BME280;22411;53.016;18.632;2023-11-21T10:52:42;100567.59;;;0.35;100.00
36380;BME280;22411;53.016;18.632;2023-11-21T10:55:19;100581.31;;;0.31;100.00
36380;BME280;22411;53.016;18.632;2023-11-21T10:57:54;100582.50;;;0.18;100.00
36380;BME280;22411;53.016;18.632;2023-11-21T11:00:20;100585.09;;;0.16;100.00
36380;BME280;22411;53.016;18.632;2023-11-21T11:02:52;100584.22;;;0.17;100.00
36380;BME280;22411;53.016;18.632;2023-11-21T11:05:22;100581.56;;;0.20;100.00
36380;BME280;22411;53.016;18.632;2023-11-21T11:07:59;100586.66;;;0.22;100.00
36380;BME280;22411;53.016;18.632;2023-11-21T11:10:30;100582.38;;;0.22;100.00
36380;BME280;22411;53.016;18.632;2023-11-21T11:12:57;100576.50;;;0.19;100.00
36380;BME280;22411;53.016;18.632;2023-11-21T11:15:24;100579.22;;;0.13;100.00
36380;BME280;22411;53.016;18.632;2023-11-21T11:17:50;100585.94;;;0.17;100.00
36380;BME280;22411;53.016;18.632;2023-11-21T11:20:16;100593.59;;;0.15;100.00
36380;BME280;22411;53.016;18.632;2023-11-21T11:28:48;100578.19;;;0.20;100.00
36380;BME280;22411;53.016;18.632;2023-11-21T11:34:41;100586.53;;;0.27;100.00
36380;BME280;22411;53.016;18.632;2023-11-21T11:37:11;100593.31;;;0.26;100.00
36380;BME280;22411;53.016;18.632;2023-11-21T11:39:39;100595.91;;;0.24;100.00
36380;BME280;22411;53.016;18.632;2023-11-21T11:42:14;100595.03;;;0.27;100.00
36380;BME280;22411;53.016;18.632;2023-11-21T11:47:31;100608.50;;;0.31;100.00
36380;BME280;22411;53.016;18.632;2023-11-21T11:52:41;100605.97;;;0.31;100.00
36380;BME280;22411;53.016;18.632;2023-11-21T11:55:14;100622.94;;;0.32;100.00
36380;BME280;22411;53.016;18.632;2023-11-21T11:57:44;100623.81;;;0.31;100.00
36380;BME280;22411;53.016;18.632;2023-11-21T12:00:36;100627.25;;;0.30;100.00
36380;BME280;22411;53.016;18.632;2023-11-21T12:03:05;100633.22;;;0.29;100.00
36380;BME280;22411;53.016;18.632;2023-11-21T12:05:34;100633.19;;;0.30;100.00
36380;BME280;22411;53.016;18.632;2023-11-21T12:08:09;100635.63;;;0.35;100.00
36380;BME280;22411;53.016;18.632;2023-11-21T12:10:39;100633.94;;;0.34;100.00
36380;BME280;22411;53.016;18.632;2023-11-21T12:13:10;100645.78;;;0.36;100.00
36380;BME280;22411;53.016;18.632;2023-11-21T12:15:39;100638.06;;;0.39;100.00
36380;BME280;22411;53.016;18.632;2023-11-21T12:18:06;100643.22;;;0.38;100.00
36380;BME280;22411;53.016;18.632;2023-11-21T12:20:32;100644.78;;;0.42;100.00
36380;BME280;22411;53.016;18.632;2023-11-21T12:23:04;100646.47;;;0.43;100.00
36380;BME280;22411;53.016;18.632;2023-11-21T12:25:31;100649.78;;;0.46;100.00
36380;BME280;22411;53.016;18.632;2023-11-21T12:27:59;100652.19;;;0.52;100.00
36380;BME280;22411;53.016;18.632;2023-11-21T12:30:30;100653.09;;;0.50;100.00
36380;BME280;22411;53.016;18.632;2023-11-21T12:32:58;100657.28;;;0.52;100.00
36380;BME280;22411;53.016;18.632;2023-11-21T12:35:26;100657.22;;;0.56;100.00
36380;BME280;22411;53.016;18.632;2023-11-21T12:37:54;100656.44;;;0.52;100.00
36380;BME280;22411;53.016;18.632;2023-11-21T12:40:20;100656.50;;;0.50;100.00
36380;BME280;22411;53.016;18.632;2023-11-21T12:42:50;100665.91;;;0.48;100.00
36380;BME280;22411;53.016;18.632;2023-11-21T12:47:43;100664.19;;;0.47;100.00
36380;BME280;22411;53.016;18.632;2023-11-21T12:50:11;100664.34;;;0.43;100.00
36380;BME280;22411;53.016;18.632;2023-11-21T12:52:44;100659.16;;;0.46;100.00
36380;BME280;22411;53.016;18.632;2023-11-21T12:55:17;100666.78;;;0.46;100.00
36380;BME280;22411;53.016;18.632;2023-11-21T12:57:51;100669.44;;;0.43;100.00
36380;BME280;22411;53.016;18.632;2023-11-21T13:00:18;100671.16;;;0.42;100.00
36380;BME280;22411;53.016;18.632;2023-11-21T13:02:57;100674.50;;;0.44;100.00
36380;BME280;22411;53.016;18.632;2023-11-21T13:05:29;100676.25;;;0.41;100.00
36380;BME280;22411;53.016;18.632;2023-11-21T13:08:02;100676.22;;;0.44;100.00
36380;BME280;22411;53.016;18.632;2023-11-21T13:10:31;100678.81;;;0.42;100.00
36380;BME280;22411;53.016;18.632;2023-11-21T13:12:58;100678.75;;;0.44;100.00
36380;BME280;22411;53.016;18.632;2023-11-21T13:15:24;100680.50;;;0.42;100.00